Time;durP1;ratioP1;P1;durP2;ratioP2;P2;SDS_P1;SDS_P2;PMS_P1;PMS_P2;Temp;Humidity;BMP_temperature;BMP_pressure;BME280_temperature;BME280_humidity;BME280_pressure;Samples;Min_cycle;Max_cycle;Signal;HPM_P1;HPM_P2
2023/08/23 00:02:23;;;;;;;7.37;4.13;;;;;;;20.04;100.00;151071.03;5008520;28;20219;-56
2023/08/23 00:04:51;;;;;;;5.80;4.30;;;;;;;20.04;100.00;151069.81;5010073;28;20223;-56
2023/08/23 00:07:18;;;;;;;8.80;4.40;;;;;;;20.03;100.00;151067.28;5007923;28;20238;-56
2023/08/23 00:09:45;;;;;;;10.43;4.33;;;;;;;19.97;100.00;151053.50;5009236;28;20232;-56
2023/08/23 00:12:16;;;;;;;5.53;4.07;;;;;;;19.96;100.00;151049.75;5005928;28;20630;-55
2023/08/23 00:14:42;;;;;;;7.67;4.90;;;;;;;19.90;100.00;151037.22;5008787;28;20660;-56
2023/08/23 00:17:09;;;;;;;11.70;4.60;;;;;;;19.88;100.00;151030.91;5007925;28;20668;-56
2023/08/23 00:19:35;;;;;;;11.00;4.40;;;;;;;19.86;100.00;151027.16;5011369;28;20833;-56
2023/08/23 00:22:03;;;;;;;8.07;4.53;;;;;;;19.86;100.00;151027.16;5012020;28;20227;-56
2023/08/23 00:24:30;;;;;;;9.77;4.50;;;;;;;19.93;100.00;151042.25;5006561;28;21164;-56
2023/08/23 00:26:56;;;;;;;6.00;4.63;;;;;;;19.88;100.00;151032.16;5008261;28;20243;-56
2023/08/23 00:29:23;;;;;;;8.80;5.03;;;;;;;19.86;100.00;151027.16;5006398;28;20385;-56
2023/08/23 00:31:50;;;;;;;7.20;4.90;;;;;;;19.89;100.00;151034.72;5010554;28;20579;-56
2023/08/23 00:34:16;;;;;;;6.57;4.30;;;;;;;19.89;100.00;151034.72;5004923;28;20243;-56
2023/08/23 00:36:43;;;;;;;8.97;4.90;;;;;;;19.89;100.00;151033.44;4994265;28;20241;-56
2023/08/23 00:39:11;;;;;;;7.87;4.50;;;;;;;19.88;100.00;151030.91;4987293;28;20593;-56
2023/08/23 00:41:38;;;;;;;8.40;4.73;;;;;;;19.85;100.00;151024.66;4996581;28;20236;-56
2023/08/23 00:44:05;;;;;;;8.30;4.63;;;;;;;19.85;100.00;151024.66;5008960;28;20752;-55
2023/08/23 00:46:31;;;;;;;8.00;4.50;;;;;;;19.84;100.00;151022.16;5007156;28;20231;-56
2023/08/23 00:48:58;;;;;;;7.53;4.33;;;;;;;19.76;100.00;151003.34;5007181;28;20679;-56
2023/08/23 00:51:25;;;;;;;7.40;4.70;;;;;;;19.71;100.00;150990.81;5007521;28;20228;-56
2023/08/23 00:53:51;;;;;;;9.63;4.60;;;;;;;19.69;100.00;150985.81;5012278;28;20220;-54
2023/08/23 00:56:20;;;;;;;8.00;4.43;;;;;;;19.68;100.00;150983.28;5008859;28;20235;-56
2023/08/23 00:58:47;;;;;;;7.07;4.90;;;;;;;19.64;100.00;150973.28;5011389;28;20230;-56
2023/08/23 01:01:14;;;;;;;7.33;4.57;;;;;;;19.66;100.00;150978.28;4993212;28;20242;-56
2023/08/23 01:03:41;;;;;;;7.47;4.80;;;;;;;19.64;100.00;150973.28;5011714;28;20238;-56
2023/08/23 01:06:25;;;;;;;6.73;4.60;;;;;;;19.60;100.00;150964.53;4995857;28;20214;-55
2023/08/23 01:08:59;;;;;;;6.73;4.17;;;;;;;19.59;100.00;150960.81;5011950;28;20865;-55
2023/08/23 01:11:36;;;;;;;8.40;4.63;;;;;;;19.58;100.00;150959.53;5006924;28;20248;-53
2023/08/23 01:14:05;;;;;;;7.20;4.33;;;;;;;19.58;100.00;150959.53;5013290;28;20218;-56
2023/08/23 01:16:34;;;;;;;8.67;4.53;;;;;;;19.52;100.00;150944.50;4999068;28;20252;-54
2023/08/23 01:19:03;;;;;;;8.33;4.57;;;;;;;19.52;100.00;150944.50;5002202;28;20678;-53
2023/08/23 01:21:34;;;;;;;9.03;4.70;;;;;;;19.50;100.00;150938.25;5010822;28;20241;-56
2023/08/23 01:24:08;;;;;;;4.77;4.27;;;;;;;19.53;100.00;150945.78;4998912;28;20226;-55
2023/08/23 01:26:36;;;;;;;8.27;4.80;;;;;;;19.47;100.00;150931.97;5009764;28;20276;-55
2023/08/23 01:29:02;;;;;;;7.07;4.90;;;;;;;19.49;100.00;150935.75;5010414;28;20362;-55
2023/08/23 01:31:32;;;;;;;8.37;4.90;;;;;;;19.47;100.00;150931.97;4997642;28;20237;-54
2023/08/23 01:34:05;;;;;;;6.67;5.00;;;;;;;19.46;100.00;150930.75;5000071;28;20288;-55
2023/08/23 01:36:32;;;;;;;6.67;4.90;;;;;;;19.48;100.00;150934.47;5008786;28;20260;-55
2023/08/23 01:39:02;;;;;;;8.57;5.07;;;;;;;19.46;100.00;150930.75;5011249;28;20227;-56
2023/08/23 01:41:29;;;;;;;4.80;4.30;;;;;;;19.46;100.00;150930.75;4989434;28;20256;-56
2023/08/23 01:43:56;;;;;;;11.83;4.77;;;;;;;19.45;100.00;150928.25;4996381;28;20224;-56
2023/08/23 01:46:22;;;;;;;9.83;4.97;;;;;;;19.44;100.00;150924.47;5010720;28;20546;-55
2023/08/23 01:48:49;;;;;;;8.17;4.97;;;;;;;19.42;100.00;150919.44;5012746;28;20242;-55
2023/08/23 01:51:16;;;;;;;8.27;5.03;;;;;;;19.39;100.00;150911.94;4995745;28;20299;-54
2023/08/23 01:53:42;;;;;;;8.10;4.63;;;;;;;19.38;100.00;150910.72;5010120;28;20248;-56
2023/08/23 01:56:10;;;;;;;8.03;4.93;;;;;;;19.37;100.00;150908.19;4992725;28;20651;-55
2023/08/23 01:58:37;;;;;;;8.53;4.90;;;;;;;19.31;100.00;150894.41;5012939;28;20597;-55
2023/08/23 02:01:04;;;;;;;9.03;5.33;;;;;;;19.24;100.00;150876.88;4996046;28;20235;-56
2023/08/23 02:03:31;;;;;;;6.70;4.80;;;;;;;19.20;100.00;150866.84;5005980;28;20229;-56
2023/08/23 02:05:57;;;;;;;7.40;5.20;;;;;;;19.17;100.00;150860.63;5008635;28;20326;-55
2023/08/23 02:08:25;;;;;;;6.33;4.57;;;;;;;19.15;100.00;150855.59;5007360;28;20231;-55
2023/08/23 02:10:51;;;;;;;8.97;4.90;;;;;;;19.10;100.00;150841.81;4994533;28;20237;-55
2023/08/23 02:13:19;;;;;;;7.43;5.50;;;;;;;19.13;100.00;150850.59;4990913;28;20749;-56
2023/08/23 02:15:46;;;;;;;6.60;5.17;;;;;;;19.08;100.00;150836.84;4998159;28;20223;-54
2023/08/23 02:18:13;;;;;;;9.33;5.37;;;;;;;19.11;100.00;150844.31;4994566;28;20220;-54
2023/08/23 02:20:39;;;;;;;9.00;5.57;;;;;;;19.17;100.00;150859.34;4995968;28;20227;-53
2023/08/23 02:23:06;;;;;;;9.10;5.47;;;;;;;19.18;100.00;150861.84;4997182;28;20250;-55
2023/08/23 02:25:32;;;;;;;7.77;5.67;;;;;;;19.22;100.00;150870.63;4995476;28;20257;-54
2023/08/23 02:27:59;;;;;;;9.07;5.23;;;;;;;19.22;100.00;150870.63;5007075;28;20229;-56
2023/08/23 02:30:27;;;;;;;5.70;4.87;;;;;;;19.19;100.00;150864.34;5012026;28;20235;-56
2023/08/23 02:32:54;;;;;;;6.87;4.93;;;;;;;19.15;100.00;150854.34;4999900;28;20433;-54
2023/08/23 02:35:21;;;;;;;9.60;5.97;;;;;;;19.09;100.00;150840.59;5014117;28;20218;-55
2023/08/23 02:37:47;;;;;;;6.33;4.93;;;;;;;19.10;100.00;150841.81;5018325;28;20234;-56
2023/08/23 02:40:14;;;;;;;9.43;5.27;;;;;;;19.11;100.00;150844.31;5012235;28;20302;-56
2023/08/23 02:42:41;;;;;;;9.60;5.10;;;;;;;19.14;100.00;150853.09;5018885;28;20233;-54
2023/08/23 02:45:09;;;;;;;7.10;5.20;;;;;;;19.15;100.00;150855.59;4996255;28;20784;-56
2023/08/23 02:47:37;;;;;;;8.07;5.03;;;;;;;19.15;100.00;150855.59;4998525;28;20255;-56
2023/08/23 02:50:04;;;;;;;7.63;5.83;;;;;;;19.16;100.00;150858.13;5002318;28;20614;-56
2023/08/23 02:52:32;;;;;;;5.50;5.00;;;;;;;19.11;100.00;150845.59;5013714;28;20243;-54
2023/08/23 02:54:57;;;;;;;6.83;5.40;;;;;;;19.09;100.00;150839.31;5015450;28;20234;-55
2023/08/23 02:57:24;;;;;;;8.17;5.33;;;;;;;19.08;100.00;150838.06;5016687;28;20230;-55
2023/08/23 02:59:51;;;;;;;7.40;5.13;;;;;;;19.05;100.00;150829.34;5006166;28;20566;-54
2023/08/23 03:02:17;;;;;;;6.57;5.03;;;;;;;19.01;100.00;150820.53;5011196;28;20242;-53
2023/08/23 03:04:45;;;;;;;8.23;5.10;;;;;;;18.99;100.00;150816.81;5000400;28;20233;-53
2023/08/23 03:07:16;;;;;;;7.10;4.73;;;;;;;18.98;100.00;150813.03;5016760;28;20226;-54
2023/08/23 03:09:43;;;;;;;10.30;5.27;;;;;;;18.92;100.00;150799.25;5018013;28;20222;-55
2023/08/23 03:12:16;;;;;;;12.93;4.90;;;;;;;18.95;100.00;150805.47;5013519;28;20313;-53
2023/08/23 03:14:42;;;;;;;5.73;4.80;;;;;;;19.01;100.00;150820.53;5013015;28;20236;-55
2023/08/23 03:17:09;;;;;;;7.23;5.30;;;;;;;18.97;100.00;150810.53;5001746;28;20259;-56
2023/08/23 03:19:36;;;;;;;6.70;4.70;;;;;;;18.98;100.00;150814.31;5013645;28;20223;-56
2023/08/23 03:22:05;;;;;;;6.63;5.17;;;;;;;19.01;100.00;150820.53;5000201;28;20631;-54
2023/08/23 03:24:32;;;;;;;7.57;5.20;;;;;;;19.05;100.00;150830.56;4996065;28;20689;-56
2023/08/23 03:26:58;;;;;;;6.40;5.10;;;;;;;19.16;100.00;150858.13;5005090;28;20228;-55
2023/08/23 03:29:25;;;;;;;5.77;4.90;;;;;;;19.18;100.00;150863.13;5014318;28;20721;-56
2023/08/23 03:31:52;;;;;;;8.17;5.03;;;;;;;19.22;100.00;150871.88;5211061;23;20618;-58
2023/08/23 03:34:21;;;;;;;6.70;5.00;;;;;;;19.27;100.00;150884.38;4975253;28;20236;-58
2023/08/23 03:36:49;;;;;;;6.80;4.73;;;;;;;19.26;100.00;150881.88;4995053;28;20224;-57
2023/08/23 03:39:17;;;;;;;11.03;5.30;;;;;;;19.30;100.00;150891.91;5001695;28;20651;-58
2023/08/23 03:41:44;;;;;;;7.70;5.20;;;;;;;19.30;100.00;150890.66;5003684;28;20220;-58
2023/08/23 03:44:12;;;;;;;7.50;5.20;;;;;;;19.29;100.00;150888.16;4973735;28;20225;-57
2023/08/23 03:46:38;;;;;;;7.13;5.43;;;;;;;19.24;100.00;150876.88;4977787;28;20582;-57
2023/08/23 03:49:05;;;;;;;8.43;5.00;;;;;;;19.29;100.00;150889.38;4987202;28;20219;-58
2023/08/23 03:51:32;;;;;;;7.67;4.83;;;;;;;19.30;100.00;150891.91;4986584;28;20235;-57
2023/08/23 03:53:58;;;;;;;7.40;5.10;;;;;;;19.33;100.00;150899.41;4987293;28;20292;-58
2023/08/23 03:56:26;;;;;;;7.27;5.33;;;;;;;19.30;100.00;150890.66;4974333;28;20216;-58
2023/08/23 03:58:53;;;;;;;7.63;4.87;;;;;;;19.35;100.00;150903.19;4976570;28;20718;-57
2023/08/23 04:01:20;;;;;;;8.07;4.97;;;;;;;19.41;100.00;150918.22;5001806;28;20230;-58
2023/08/23 04:03:47;;;;;;;6.80;4.27;;;;;;;19.39;100.00;150913.22;5003286;28;20758;-58
2023/08/23 04:06:13;;;;;;;7.00;4.67;;;;;;;19.39;100.00;150911.94;4973806;28;20215;-58
2023/08/23 04:08:40;;;;;;;7.63;5.37;;;;;;;19.44;100.00;150924.47;4986369;28;20231;-57
2023/08/23 04:11:07;;;;;;;5.70;5.10;;;;;;;19.47;100.00;150931.97;5003518;28;20233;-58
2023/08/23 04:13:34;;;;;;;7.90;4.90;;;;;;;19.47;100.00;150931.97;5000962;28;20242;-58
2023/08/23 04:16:01;;;;;;;8.90;5.27;;;;;;;19.42;100.00;150919.44;4985974;28;20684;-56
2023/08/23 04:18:28;;;;;;;6.53;4.83;;;;;;;19.45;100.00;150926.97;4983000;28;20225;-58
2023/08/23 04:21:00;;;;;;;8.70;4.80;;;;;;;19.45;100.00;150928.25;5003529;28;20234;-58
2023/08/23 04:23:27;;;;;;;7.23;4.53;;;;;;;19.42;100.00;150919.44;4982693;28;20244;-58
2023/08/23 04:25:54;;;;;;;7.27;4.97;;;;;;;19.35;100.00;150903.19;5001072;28;20587;-58
2023/08/23 04:28:20;;;;;;;9.97;5.50;;;;;;;19.29;100.00;150888.16;4987181;28;20226;-58
2023/08/23 04:30:48;;;;;;;8.30;5.00;;;;;;;19.28;100.00;150886.88;4983698;28;20218;-58
2023/08/23 04:33:15;;;;;;;7.30;4.87;;;;;;;19.25;100.00;150879.38;4987345;28;20215;-58
2023/08/23 04:35:44;;;;;;;8.83;5.10;;;;;;;19.22;100.00;150871.88;4981409;28;20240;-58
2023/08/23 04:38:13;;;;;;;9.40;5.40;;;;;;;19.16;100.00;150858.13;4987946;28;20220;-58
2023/08/23 04:40:40;;;;;;;8.17;5.60;;;;;;;19.10;100.00;150843.09;5011462;28;20618;-58
2023/08/23 04:43:08;;;;;;;7.17;4.73;;;;;;;19.10;100.00;150843.09;5003071;28;20222;-58
2023/08/23 04:45:37;;;;;;;12.40;5.37;;;;;;;19.10;100.00;150843.09;4989777;28;20226;-58
2023/08/23 04:48:07;;;;;;;6.20;5.17;;;;;;;19.12;100.00;150846.81;4995112;28;20231;-58
2023/08/23 04:50:34;;;;;;;8.17;4.67;;;;;;;19.13;100.00;150849.31;4988020;28;20232;-58
2023/08/23 04:53:01;;;;;;;22.30;5.67;;;;;;;19.11;100.00;150845.59;4979952;28;20242;-58
2023/08/23 04:55:29;;;;;;;10.17;5.37;;;;;;;19.17;100.00;150859.34;5002849;28;20275;-58
2023/08/23 04:57:57;;;;;;;12.33;5.60;;;;;;;19.18;100.00;150861.84;4980987;28;20226;-58
2023/08/23 05:00:23;;;;;;;10.27;5.47;;;;;;;19.14;100.00;150853.09;4981896;28;20344;-58
2023/08/23 05:02:50;;;;;;;8.90;5.30;;;;;;;19.20;100.00;150866.84;4988688;28;20233;-57
2023/08/23 05:05:18;;;;;;;8.80;5.57;;;;;;;19.23;100.00;150874.38;4973990;28;20227;-58
2023/08/23 05:07:45;;;;;;;6.90;5.33;;;;;;;19.21;100.00;150869.34;5007784;28;20696;-58
2023/08/23 05:10:12;;;;;;;8.20;5.87;;;;;;;19.26;100.00;150880.66;4986857;28;20227;-58
2023/08/23 05:12:38;;;;;;;11.27;5.40;;;;;;;19.31;100.00;150894.41;5005871;28;20329;-57
2023/08/23 05:15:06;;;;;;;9.50;5.13;;;;;;;19.37;100.00;150906.94;4980722;28;20631;-58
2023/08/23 05:17:33;;;;;;;12.20;5.73;;;;;;;19.39;100.00;150911.94;4985722;28;20239;-58
2023/08/23 05:20:00;;;;;;;7.70;5.23;;;;;;;19.43;100.00;150921.94;4989932;28;20235;-58
2023/08/23 05:22:28;;;;;;;9.90;5.90;;;;;;;19.39;100.00;150913.22;4977291;28;20251;-58
2023/08/23 05:24:55;;;;;;;7.77;5.60;;;;;;;19.42;100.00;150920.72;5006115;28;20227;-58
2023/08/23 05:27:21;;;;;;;7.43;5.20;;;;;;;19.45;100.00;150926.97;5004799;28;20235;-58
2023/08/23 05:29:48;;;;;;;7.37;4.93;;;;;;;19.49;100.00;150936.97;4989037;28;20242;-57
2023/08/23 05:32:17;;;;;;;8.80;5.67;;;;;;;19.56;100.00;150954.50;5003890;28;20231;-59
2023/08/23 05:34:43;;;;;;;8.67;5.03;;;;;;;19.58;100.00;150959.53;4980042;28;20223;-58
2023/08/23 05:37:16;;;;;;;8.93;5.17;;;;;;;19.56;100.00;150953.28;4975366;28;20239;-58
2023/08/23 05:39:44;;;;;;;6.67;5.73;;;;;;;19.59;100.00;150962.03;4979645;28;20335;-58
2023/08/23 05:42:16;;;;;;;9.87;5.37;;;;;;;19.68;100.00;150982.06;5005901;28;20242;-58
2023/08/23 05:44:42;;;;;;;9.47;5.67;;;;;;;19.72;100.00;150992.09;4977260;28;20231;-58
2023/08/23 05:47:09;;;;;;;8.73;5.40;;;;;;;19.75;100.00;150999.59;4978531;28;20237;-58
2023/08/23 05:49:36;;;;;;;8.60;5.40;;;;;;;19.74;100.00;150998.31;5005069;28;20231;-58
2023/08/23 05:52:02;;;;;;;9.97;5.00;;;;;;;19.78;100.00;151007.13;5005211;28;20595;-58
2023/08/23 05:54:31;;;;;;;5.50;4.90;;;;;;;19.77;100.00;151005.84;5002367;28;20238;-58
2023/08/23 05:56:59;;;;;;;9.43;5.50;;;;;;;19.79;100.00;151009.63;5006686;28;20226;-57
2023/08/23 05:59:26;;;;;;;9.70;6.10;;;;;;;19.85;100.00;151023.38;5003321;28;20220;-58
2023/08/23 06:01:53;;;;;;;10.53;5.20;;;;;;;19.89;100.00;151033.44;5005760;28;20225;-58
2023/08/23 06:04:19;;;;;;;7.37;5.30;;;;;;;19.91;100.00;151038.47;5002911;28;20228;-58
2023/08/23 06:06:47;;;;;;;13.80;5.60;;;;;;;19.93;100.00;151042.25;5006251;28;20686;-58
2023/08/23 06:09:14;;;;;;;5.53;4.90;;;;;;;19.91;100.00;151038.47;5003315;28;20242;-58
2023/08/23 06:11:40;;;;;;;5.77;5.10;;;;;;;19.92;100.00;151040.97;4978101;28;20238;-56
2023/08/23 06:14:19;;;;;;;7.57;5.10;;;;;;;20.00;100.00;151061.00;5004819;28;20628;-57
2023/08/23 06:16:46;;;;;;;7.67;5.13;;;;;;;20.02;100.00;151064.78;5004707;28;20219;-58
2023/08/23 06:19:12;;;;;;;6.70;5.40;;;;;;;20.09;100.00;151082.34;5002613;28;20221;-57
2023/08/23 06:21:39;;;;;;;8.13;5.77;;;;;;;20.14;100.00;151094.81;5005627;28;20259;-57
2023/08/23 06:24:06;;;;;;;9.00;5.50;;;;;;;20.18;100.00;151103.59;5005465;28;20229;-58
2023/08/23 06:26:32;;;;;;;8.37;5.63;;;;;;;20.21;100.00;151112.34;5002014;28;20581;-57
2023/08/23 06:28:59;;;;;;;8.93;5.50;;;;;;;20.22;100.00;151113.63;5006113;28;20269;-57
2023/08/23 06:31:27;;;;;;;7.37;5.33;;;;;;;20.23;100.00;151116.13;5002440;28;20250;-57
2023/08/23 06:33:53;;;;;;;6.07;5.27;;;;;;;20.26;100.00;151122.38;5005423;28;20234;-54
2023/08/23 06:36:20;;;;;;;11.30;5.30;;;;;;;20.31;100.00;151136.19;5003620;28;20234;-58
2023/08/23 06:38:47;;;;;;;8.00;6.00;;;;;;;20.40;100.00;151157.47;5006017;28;20228;-58
2023/08/23 06:41:13;;;;;;;7.20;5.20;;;;;;;20.46;100.00;151172.50;4973109;28;20233;-59
2023/08/23 06:43:41;;;;;;;7.20;5.10;;;;;;;20.64;100.00;151216.38;5004530;28;20234;-59
2023/08/23 06:46:07;;;;;;;8.17;5.63;;;;;;;20.76;100.00;151243.91;5005107;28;20221;-59
2023/08/23 06:48:35;;;;;;;7.83;5.67;;;;;;;20.86;100.00;151269.03;5003365;28;20224;-59
2023/08/23 06:51:03;;;;;;;9.47;6.67;;;;;;;21.03;100.00;151310.41;5005704;28;20238;-59
2023/08/23 06:53:29;;;;;;;8.63;7.03;;;;;;;21.12;100.00;151330.47;5002995;28;20225;-59
2023/08/23 06:55:56;;;;;;;12.93;7.13;;;;;;;21.18;100.00;151345.50;5006363;28;20220;-59
2023/08/23 06:58:22;;;;;;;9.70;7.67;;;;;;;21.29;100.00;151371.81;5002764;28;20244;-57
2023/08/23 07:00:49;;;;;;;12.33;7.27;;;;;;;21.36;100.00;151390.59;5003849;28;20213;-58
2023/08/23 07:03:16;;;;;;;11.37;7.40;;;;;;;21.40;99.65;151399.38;5001371;28;20238;-59
2023/08/23 07:05:44;;;;;;;8.30;6.80;;;;;;;21.33;100.00;151383.06;5004568;28;20686;-59
2023/08/23 07:08:10;;;;;;;8.37;6.93;;;;;;;21.43;100.00;151405.63;5002200;28;20220;-59
2023/08/23 07:10:37;;;;;;;9.17;6.03;;;;;;;21.64;100.00;151458.34;5002378;28;20243;-58
2023/08/23 07:13:04;;;;;;;9.83;6.97;;;;;;;21.74;98.72;151480.91;5004225;28;20979;-58
2023/08/23 07:15:30;;;;;;;10.57;7.60;;;;;;;21.80;96.99;151495.97;4999220;28;20235;-59
2023/08/23 07:17:57;;;;;;;10.13;7.20;;;;;;;21.80;96.99;151495.97;5003540;28;20237;-59
2023/08/23 07:20:23;;;;;;;13.13;6.80;;;;;;;21.72;98.44;151475.88;5001138;28;20229;-59
2023/08/23 07:22:51;;;;;;;10.20;6.40;;;;;;;21.79;97.12;151493.44;5004742;28;20235;-59
2023/08/23 07:25:18;;;;;;;7.87;6.83;;;;;;;21.93;97.49;151527.28;5001051;28;20591;-59
2023/08/23 07:27:45;;;;;;;8.97;6.40;;;;;;;22.02;94.71;151549.84;5004492;28;20223;-59
2023/08/23 07:30:13;;;;;;;10.83;6.10;;;;;;;22.19;93.49;151590.00;5000433;28;20240;-59
2023/08/23 07:32:39;;;;;;;11.03;6.63;;;;;;;22.39;92.63;151638.88;5003406;28;20229;-59
2023/08/23 07:35:07;;;;;;;10.60;6.80;;;;;;;22.45;92.29;151652.75;5004140;28;20231;-59
2023/08/23 07:37:34;;;;;;;8.93;6.87;;;;;;;22.58;92.18;151685.38;5001372;28;20287;-59
2023/08/23 07:40:04;;;;;;;10.60;6.70;;;;;;;22.57;92.06;151682.84;5004553;28;20224;-59
2023/08/23 07:42:30;;;;;;;11.00;7.27;;;;;;;22.67;90.57;151706.66;5000616;28;20259;-59
2023/08/23 07:44:57;;;;;;;10.17;6.63;;;;;;;22.70;89.08;151714.19;4977747;28;20225;-58
2023/08/23 07:47:24;;;;;;;9.40;6.87;;;;;;;22.61;90.06;151692.91;5000611;28;20225;-58
2023/08/23 07:49:51;;;;;;;10.83;7.07;;;;;;;22.69;90.56;151712.97;5004191;28;20324;-59
2023/08/23 07:52:18;;;;;;;9.80;7.57;;;;;;;22.63;88.52;151696.63;5001360;28;20229;-59
2023/08/23 07:54:45;;;;;;;7.77;6.20;;;;;;;22.63;88.50;151696.63;5009101;28;20620;-59
2023/08/23 07:57:17;;;;;;;7.57;6.77;;;;;;;22.65;89.45;151701.66;5000604;28;20221;-58
2023/08/23 07:59:44;;;;;;;7.90;6.70;;;;;;;22.66;88.03;151704.16;5005300;28;20220;-54
2023/08/23 08:02:16;;;;;;;10.73;6.97;;;;;;;22.65;89.73;151701.66;5000411;28;20235;-57
2023/08/23 08:04:43;;;;;;;10.90;7.20;;;;;;;22.74;89.76;151723.00;5003349;28;20709;-57
2023/08/23 08:07:13;;;;;;;12.87;7.10;;;;;;;22.90;89.91;151763.09;5001314;28;20221;-57
2023/08/23 08:09:39;;;;;;;7.47;6.47;;;;;;;22.95;89.46;151775.66;5004086;28;20776;-57
2023/08/23 08:12:07;;;;;;;9.97;6.67;;;;;;;23.05;88.11;151798.25;5003983;28;20236;-56
2023/08/23 08:14:34;;;;;;;10.97;6.83;;;;;;;23.13;88.01;151819.59;5000760;28;20715;-57
2023/08/23 08:17:01;;;;;;;9.20;6.80;;;;;;;23.17;86.99;151828.34;5002745;28;20217;-57
2023/08/23 08:19:28;;;;;;;9.83;6.93;;;;;;;23.22;87.50;151839.69;5000240;28;20424;-57
2023/08/23 08:21:55;;;;;;;10.97;7.23;;;;;;;23.23;85.99;151843.47;5004218;28;20237;-57
2023/08/23 08:24:21;;;;;;;11.50;7.50;;;;;;;22.99;88.71;151785.69;4999135;28;20231;-57
2023/08/23 08:26:48;;;;;;;8.77;7.33;;;;;;;23.32;86.53;151863.53;5003525;28;20225;-57
2023/08/23 08:29:14;;;;;;;8.70;7.80;;;;;;;23.27;86.38;151852.28;5001060;28;20238;-56
2023/08/23 08:31:42;;;;;;;10.37;6.87;;;;;;;23.38;85.27;151878.59;5002544;28;20771;-56
2023/08/23 08:34:09;;;;;;;13.23;8.13;;;;;;;23.38;84.53;151879.84;5001276;28;20336;-57
2023/08/23 08:36:36;;;;;;;10.60;6.43;;;;;;;23.39;83.92;151882.34;5003652;28;20318;-57
2023/08/23 08:39:03;;;;;;;10.43;7.77;;;;;;;23.42;84.68;151888.66;5004065;28;20288;-56
2023/08/23 08:41:29;;;;;;;15.83;7.77;;;;;;;23.50;85.13;151907.44;4971561;28;20238;-56
2023/08/23 08:43:57;;;;;;;11.27;7.90;;;;;;;23.59;84.34;151930.03;5003276;28;20736;-58
2023/08/23 08:46:24;;;;;;;9.80;6.93;;;;;;;23.72;83.58;151962.69;4999754;28;20233;-58
2023/08/23 08:48:52;;;;;;;11.13;7.27;;;;;;;23.78;82.81;151975.22;5003988;28;20218;-58
2023/08/23 08:51:21;;;;;;;10.03;7.27;;;;;;;23.81;81.49;151984.03;5001293;28;20242;-57
2023/08/23 08:53:49;;;;;;;12.10;6.57;;;;;;;23.87;82.46;151997.81;5003878;28;20591;-57
2023/08/23 08:56:17;;;;;;;9.00;6.43;;;;;;;24.00;82.02;152030.50;5001338;28;20236;-58
2023/08/23 08:58:44;;;;;;;9.53;7.23;;;;;;;24.00;81.67;152029.25;5003947;28;20249;-57
2023/08/23 09:01:14;;;;;;;7.17;6.47;;;;;;;24.02;81.11;152035.53;4999186;28;20257;-54
2023/08/23 09:03:41;;;;;;;9.47;6.80;;;;;;;24.05;83.52;152041.78;5002239;28;20211;-57
2023/08/23 09:06:08;;;;;;;8.80;6.80;;;;;;;24.17;80.85;152071.91;5003339;28;20234;-58
2023/08/23 09:08:35;;;;;;;12.27;6.83;;;;;;;24.25;80.00;152089.50;5001021;28;20250;-57
2023/08/23 09:11:02;;;;;;;10.70;6.50;;;;;;;24.31;80.43;152104.56;5003102;28;20597;-58
2023/08/23 09:13:28;;;;;;;9.33;6.87;;;;;;;24.28;82.43;152098.31;5002252;28;20243;-57
2023/08/23 09:15:57;;;;;;;9.40;6.70;;;;;;;24.39;81.36;152124.66;5005947;28;20699;-58
2023/08/23 09:18:24;;;;;;;11.80;7.47;;;;;;;24.34;80.33;152110.88;5002510;28;20227;-57
2023/08/23 09:20:50;;;;;;;9.13;6.77;;;;;;;24.44;81.03;152137.22;5006090;28;20223;-57
2023/08/23 09:23:18;;;;;;;13.47;7.40;;;;;;;24.43;79.19;152133.41;5003263;28;20308;-57
2023/08/23 09:25:47;;;;;;;8.73;7.10;;;;;;;24.50;78.62;152151.00;5006100;28;20216;-57
2023/08/23 09:28:13;;;;;;;11.40;6.90;;;;;;;24.60;78.77;152176.13;5002102;28;20218;-57
2023/08/23 09:30:40;;;;;;;14.87;7.43;;;;;;;24.53;79.24;152157.31;5003817;28;20702;-58
2023/08/23 09:33:10;;;;;;;9.93;6.40;;;;;;;24.71;76.87;152202.53;5006850;28;20247;-57
2023/08/23 09:35:37;;;;;;;9.07;6.50;;;;;;;24.79;75.63;152221.38;5003919;28;20228;-54
2023/08/23 09:38:04;;;;;;;10.87;7.17;;;;;;;24.73;76.29;152207.59;5006803;28;20220;-56
2023/08/23 09:40:33;;;;;;;10.07;6.53;;;;;;;24.71;75.73;152201.25;5003480;28;20235;-57
2023/08/23 09:43:00;;;;;;;7.40;6.70;;;;;;;24.85;74.63;152236.44;5003044;28;20671;-57
2023/08/23 09:45:28;;;;;;;8.13;6.57;;;;;;;25.08;75.00;152291.72;5002835;28;20241;-57
2023/08/23 09:47:56;;;;;;;9.30;6.10;;;;;;;25.03;75.32;152279.16;5005613;28;20234;-57
2023/08/23 09:50:24;;;;;;;12.67;6.93;;;;;;;24.97;73.54;152265.31;5003236;28;20222;-57
2023/08/23 09:52:53;;;;;;;10.03;6.40;;;;;;;25.15;74.12;152308.03;5006513;28;20230;-56
2023/08/23 09:55:20;;;;;;;9.40;7.13;;;;;;;25.28;72.16;152340.69;5001558;28;20232;-57
2023/08/23 09:57:48;;;;;;;11.20;6.30;;;;;;;25.26;74.08;152335.66;5004770;28;20230;-58
2023/08/23 10:00:16;;;;;;;8.67;7.37;;;;;;;25.28;73.53;152340.69;5001378;28;20212;-57
2023/08/23 10:02:45;;;;;;;12.57;7.63;;;;;;;25.30;73.91;152344.47;5005198;28;20235;-57
2023/08/23 10:05:12;;;;;;;14.40;7.47;;;;;;;25.38;76.13;152363.31;5003770;28;20235;-58
2023/08/23 10:07:40;;;;;;;10.30;6.77;;;;;;;25.52;73.28;152397.25;5003891;28;20713;-58
2023/08/23 10:10:08;;;;;;;8.87;6.80;;;;;;;25.60;71.11;152417.34;5004571;28;20313;-58
2023/08/23 10:12:37;;;;;;;9.87;6.50;;;;;;;25.67;73.96;152433.72;5002332;28;20601;-55
2023/08/23 10:15:08;;;;;;;8.70;6.40;;;;;;;25.67;70.31;152434.94;5004049;28;20210;-57
2023/08/23 10:17:36;;;;;;;7.77;6.10;;;;;;;25.75;68.89;152453.81;5001130;28;20585;-57
2023/08/23 10:20:05;;;;;;;10.67;6.67;;;;;;;25.86;70.04;152480.19;5005941;28;20715;-57
2023/08/23 10:22:31;;;;;;;9.77;6.33;;;;;;;25.95;70.24;152502.78;5002085;28;20229;-58
2023/08/23 10:24:58;;;;;;;12.07;7.37;;;;;;;26.07;71.49;152531.69;5005752;28;20235;-58
2023/08/23 10:27:25;;;;;;;10.37;7.43;;;;;;;26.09;69.60;152536.69;5002885;28;20232;-58
2023/08/23 10:29:52;;;;;;;13.47;7.43;;;;;;;26.10;68.33;152539.22;5005758;28;20255;-58
2023/08/23 10:32:20;;;;;;;10.10;7.47;;;;;;;26.13;70.00;152545.53;5001503;28;20245;-57
2023/08/23 10:34:50;;;;;;;11.27;6.70;;;;;;;26.29;70.26;152585.78;5005233;28;20225;-58
2023/08/23 10:37:18;;;;;;;8.20;6.73;;;;;;;26.35;69.29;152599.59;5000722;28;20230;-56
2023/08/23 10:39:49;;;;;;;8.77;6.40;;;;;;;26.54;68.02;152646.06;5005305;28;20230;-56
2023/08/23 10:42:17;;;;;;;8.43;6.10;;;;;;;26.42;66.83;152617.19;5002571;28;20587;-57
2023/08/23 10:44:54;;;;;;;12.30;7.00;;;;;;;26.52;67.17;152641.06;5005545;28;20285;-58
2023/08/23 10:47:23;;;;;;;11.43;7.17;;;;;;;26.33;71.42;152594.56;5001224;28;20225;-57
2023/08/23 10:49:51;;;;;;;8.03;6.73;;;;;;;26.30;70.48;152587.03;5005272;28;20232;-56
2023/08/23 10:52:18;;;;;;;12.07;6.80;;;;;;;26.48;67.24;152632.28;5002533;28;20585;-58
2023/08/23 10:54:44;;;;;;;10.10;6.50;;;;;;;26.72;67.72;152688.81;5003943;28;20693;-58
2023/08/23 10:57:17;;;;;;;14.97;6.80;;;;;;;26.84;65.59;152719.03;5002384;28;20249;-58
2023/08/23 10:59:44;;;;;;;6.93;6.20;;;;;;;26.77;66.69;152701.38;5004990;28;20717;-58
2023/08/23 11:02:16;;;;;;;9.57;6.47;;;;;;;26.79;64.83;152706.41;5001354;28;20218;-58
2023/08/23 11:04:44;;;;;;;9.60;6.93;;;;;;;26.85;65.38;152721.56;5001927;28;20231;-58
2023/08/23 11:07:17;;;;;;;7.67;6.70;;;;;;;26.98;65.38;152751.72;5000699;28;20230;-58
2023/08/23 11:09:44;;;;;;;8.07;6.83;;;;;;;27.00;65.05;152758.03;5003740;28;20253;-57
2023/08/23 11:12:16;;;;;;;9.60;6.67;;;;;;;27.16;66.60;152795.72;5001718;28;20238;-57
2023/08/23 11:14:42;;;;;;;11.50;6.67;;;;;;;27.10;64.73;152783.13;5004995;28;20606;-57
2023/08/23 11:17:09;;;;;;;9.00;5.97;;;;;;;27.07;65.88;152774.34;4998726;28;20230;-57
2023/08/23 11:19:36;;;;;;;11.13;6.47;;;;;;;27.29;66.98;152828.41;5003580;28;20748;-57